Time;durP1;ratioP1;P1;durP2;ratioP2;P2;SDS_P1;SDS_P2;PMS_P1;PMS_P2;Temp;Humidity;BMP_temperature;BMP_pressure;BME280_temperature;BME280_humidity;BME280_pressure;Samples;Min_cycle;Max_cycle;Signal;HPM_P1;HPM_P2
2022/09/30 00:01:39;;;;;;;7.82;6.97;;;9.90;99.90;;;;;;5095762;28;20033;-80
2022/09/30 00:04:06;;;;;;;7.85;7.05;;;9.90;99.90;;;;;;5093685;27;20465;-81
2022/09/30 00:06:34;;;;;;;8.43;7.63;;;10.00;99.90;;;;;;5096196;27;20044;-80
2022/09/30 00:09:00;;;;;;;;;;;9.90;99.90;;;;;;5087266;28;20059;-80
2022/09/30 00:11:29;;;;;;;9.02;8.13;;;9.90;99.90;;;;;;5091508;28;20065;-81
2022/09/30 00:13:57;;;;;;;10.15;9.20;;;9.90;99.90;;;;;;5093574;28;20058;-80
2022/09/30 00:16:24;;;;;;;9.15;8.18;;;9.90;99.90;;;;;;5087687;28;20399;-80
2022/09/30 00:18:50;;;;;;;;;;;9.90;99.90;;;;;;5097491;28;20054;-80
2022/09/30 00:21:16;;;;;;;8.80;8.00;;;9.90;99.90;;;;;;5096689;28;20282;-81
2022/09/30 00:23:43;;;;;;;9.95;9.02;;;9.90;99.90;;;;;;5085534;28;20048;-80
2022/09/30 00:26:15;;;;;;;9.13;8.32;;;9.90;99.90;;;;;;5094554;28;20055;-80
2022/09/30 00:28:42;;;;;;;9.15;8.32;;;10.00;99.90;;;;;;5087847;28;20040;-81
2022/09/30 00:31:14;;;;;;;9.57;8.57;;;9.90;99.90;;;;;;5090838;28;20491;-80
2022/09/30 00:33:40;;;;;;;10.30;9.38;;;10.00;99.90;;;;;;5094158;28;20058;-80
2022/09/30 00:36:06;;;;;;;9.90;9.00;;;9.90;99.90;;;;;;5093166;28;20050;-80
2022/09/30 00:38:32;;;;;;;9.20;8.40;;;10.00;99.90;;;;;;5098228;28;20040;-80
2022/09/30 00:40:59;;;;;;;9.95;8.95;;;9.90;99.90;;;;;;5092076;28;20044;-80
2022/09/30 00:43:50;;;;;;;9.63;8.68;;;10.00;99.90;;;;;;5094097;28;20395;-80
2022/09/30 00:46:36;;;;;;;10.15;9.25;;;10.00;99.90;;;;;;5091572;28;20083;-80
2022/09/30 00:49:12;;;;;;;10.18;9.18;;;10.00;99.90;;;;;;5090784;28;20063;-81
2022/09/30 00:51:44;;;;;;;10.77;9.68;;;9.90;99.90;;;;;;5094115;27;20055;-79
2022/09/30 00:54:13;;;;;;;10.85;9.82;;;10.00;99.90;;;;;;5091850;28;20131;-80
2022/09/30 00:56:43;;;;;;;11.20;10.20;;;9.90;99.90;;;;;;5096726;28;20482;-80
2022/09/30 00:59:23;;;;;;;10.52;9.60;;;9.90;99.90;;;;;;5103901;28;20042;-80
2022/09/30 01:01:48;;;;;;;11.65;10.55;;;9.90;99.90;;;;;;5099883;28;20043;-80
2022/09/30 01:04:19;;;;;;;11.48;10.48;;;9.90;99.90;;;;;;5101724;28;20109;-80
2022/09/30 01:06:46;;;;;;;10.75;9.80;;;9.90;99.90;;;;;;5091603;28;20036;-80
2022/09/30 01:09:12;;;;;;;11.20;10.20;;;9.90;99.90;;;;;;5096720;28;20039;-80
2022/09/30 01:11:38;;;;;;;11.35;10.18;;;9.90;99.90;;;;;;5099436;27;20518;-81
2022/09/30 01:14:08;;;;;;;11.30;10.30;;;9.90;99.90;;;;;;5104889;28;20071;-81
2022/09/30 01:17:11;;;;;;;11.60;10.50;;;9.90;99.90;;;;;;5095393;28;20055;-80
2022/09/30 01:19:57;;;;;;;11.30;10.20;;;9.90;99.90;;;;;;5102597;28;20035;-80
2022/09/30 01:22:54;;;;;;;12.65;9.88;;;9.90;99.90;;;;;;5092325;27;20722;-78
2022/09/30 01:26:00;;;;;;;12.13;10.93;;;9.80;99.90;;;;;;5093831;28;20059;-80
2022/09/30 01:28:32;;;;;;;11.98;10.60;;;9.80;99.90;;;;;;5101757;28;20432;-80
2022/09/30 01:31:12;;;;;;;12.35;11.15;;;9.80;99.90;;;;;;5093579;28;20461;-80
2022/09/30 01:34:12;;;;;;;11.88;10.80;;;9.80;99.90;;;;;;5101807;28;20457;-80
2022/09/30 01:37:00;;;;;;;12.57;11.30;;;9.80;99.90;;;;;;5099187;28;20047;-80
2022/09/30 01:39:28;;;;;;;;;;;9.70;99.90;;;;;;5099360;28;20036;-79
2022/09/30 01:42:05;;;;;;;10.95;9.95;;;9.60;99.90;;;;;;5101616;28;19965;-79
2022/09/30 01:45:02;;;;;;;12.35;11.07;;;9.60;99.90;;;;;;5097058;28;20123;-80
2022/09/30 01:47:35;;;;;;;11.55;10.45;;;9.60;99.90;;;;;;5095241;27;20047;-81
2022/09/30 01:50:28;;;;;;;12.57;11.38;;;9.50;99.90;;;;;;5101835;27;20031;-81
2022/09/30 01:53:14;;;;;;;12.52;11.43;;;9.50;99.90;;;;;;5118423;27;20058;-82
2022/09/30 01:56:04;;;;;;;13.32;12.00;;;9.50;99.90;;;;;;5090709;28;20040;-81
2022/09/30 01:58:59;;;;;;;12.35;11.15;;;9.50;99.90;;;;;;5101640;28;20044;-81
2022/09/30 02:01:56;;;;;;;11.30;10.30;;;9.50;99.90;;;;;;5089007;27;20092;-80
2022/09/30 02:04:49;;;;;;;11.85;10.85;;;9.50;99.90;;;;;;5108205;27;20532;-81
2022/09/30 02:07:24;;;;;;;11.35;10.32;;;9.50;99.90;;;;;;5096117;28;20048;-80
2022/09/30 02:10:00;;;;;;;12.88;11.68;;;9.50;99.90;;;;;;5098876;28;20104;-80
2022/09/30 02:12:30;;;;;;;11.65;10.55;;;9.50;99.90;;;;;;5099129;27;20075;-80
2022/09/30 02:15:02;;;;;;;11.85;10.75;;;9.40;99.90;;;;;;5088422;28;20039;-80
2022/09/30 02:17:39;;;;;;;13.35;12.07;;;9.40;99.90;;;;;;5094913;28;20050;-80
2022/09/30 02:20:41;;;;;;;13.07;11.82;;;9.40;99.90;;;;;;5098774;27;20051;-80
2022/09/30 02:23:13;;;;;;;11.23;10.20;;;9.30;99.90;;;;;;5074432;28;20049;-80
2022/09/30 02:25:43;;;;;;;11.55;10.13;;;9.30;99.90;;;;;;5094806;27;20055;-80
2022/09/30 02:28:13;;;;;;;13.52;12.27;;;9.20;99.90;;;;;;5103843;28;20043;-80
2022/09/30 02:30:44;;;;;;;14.43;12.93;;;9.20;99.90;;;;;;5094771;28;20056;-80
2022/09/30 02:33:16;;;;;;;11.80;10.60;;;9.10;99.90;;;;;;5096618;28;20051;-80
2022/09/30 02:35:51;;;;;;;8.73;7.93;;;9.10;99.90;;;;;;5097464;28;20538;-79
2022/09/30 02:38:30;;;;;;;8.57;7.75;;;9.00;99.90;;;;;;5091790;28;20050;-80
2022/09/30 02:41:05;;;;;;;9.55;8.55;;;9.00;99.90;;;;;;5097224;27;20085;-80
2022/09/30 02:43:31;;;;;;;9.30;8.50;;;8.90;99.90;;;;;;5090160;27;20050;-80
2022/09/30 02:46:35;;;;;;;9.82;8.93;;;8.90;99.90;;;;;;5103126;28;20035;-81
2022/09/30 02:49:27;;;;;;;11.00;10.00;;;8.80;99.90;;;;;;5100311;28;20121;-80
2022/09/30 02:52:02;;;;;;;11.18;10.18;;;8.80;99.90;;;;;;5097425;27;20051;-80
2022/09/30 02:54:40;;;;;;;10.77;9.65;;;8.70;99.90;;;;;;5092222;28;20060;-80
2022/09/30 02:57:11;;;;;;;13.15;11.80;;;8.70;99.90;;;;;;5092616;28;20039;-80
2022/09/30 02:59:37;;;;;;;13.90;12.70;;;8.70;99.90;;;;;;5115720;27;20043;-81
2022/09/30 03:02:02;;;;;;;12.32;11.10;;;8.70;99.90;;;;;;5093152;27;20483;-80
2022/09/30 03:04:31;;;;;;;14.90;13.60;;;8.70;99.90;;;;;;5093872;28;20498;-80
2022/09/30 03:06:58;;;;;;;15.40;14.00;;;8.80;99.90;;;;;;5096590;28;20043;-80
2022/09/30 03:09:25;;;;;;;15.30;13.80;;;8.80;99.90;;;;;;5103530;28;20044;-80
2022/09/30 03:11:54;;;;;;;;;;;8.80;99.90;;;;;;5096492;28;20042;-80
2022/09/30 03:14:50;;;;;;;15.52;14.13;;;8.80;99.90;;;;;;5094385;27;19920;-81
2022/09/30 03:17:41;;;;;;;13.70;12.50;;;8.80;99.90;;;;;;5091518;27;20043;-81
2022/09/30 03:20:35;;;;;;;12.68;11.48;;;8.80;99.90;;;;;;5093197;28;20509;-81
2022/09/30 03:23:06;;;;;;;11.57;10.23;;;8.80;99.90;;;;;;5092791;27;20530;-81
2022/09/30 03:26:03;;;;;;;10.98;9.98;;;8.80;99.90;;;;;;5092690;28;20189;-80
2022/09/30 03:28:41;;;;;;;10.98;9.85;;;8.70;99.90;;;;;;5090855;28;20052;-79
2022/09/30 03:31:35;;;;;;;8.20;7.45;;;8.60;99.90;;;;;;5096935;28;20039;-79
2022/09/30 03:34:14;;;;;;;10.35;9.45;;;8.50;99.90;;;;;;5087756;28;20044;-80
2022/09/30 03:36:50;;;;;;;11.98;10.45;;;8.50;99.90;;;;;;5103444;27;20050;-80
2022/09/30 03:39:28;;;;;;;10.00;9.10;;;8.50;99.90;;;;;;5089199;28;20040;-80
2022/09/30 03:42:20;;;;;;;10.32;9.32;;;8.40;99.90;;;;;;5097448;28;20380;-80
2022/09/30 03:44:56;;;;;;;10.63;9.68;;;8.30;99.90;;;;;;5098186;28;20083;-79
2022/09/30 03:47:25;;;;;;;13.65;12.35;;;8.30;99.90;;;;;;5093800;28;20038;-80
2022/09/30 03:49:55;;;;;;;14.90;13.40;;;8.30;99.90;;;;;;5097200;28;20132;-80
2022/09/30 03:52:25;;;;;;;14.60;13.20;;;8.30;99.90;;;;;;5091305;28;20042;-81
2022/09/30 03:54:54;;;;;;;13.77;12.52;;;8.40;99.90;;;;;;5099482;28;20708;-80
2022/09/30 03:57:20;;;;;;;14.50;13.20;;;8.40;99.90;;;;;;5092985;28;20048;-78
2022/09/30 03:59:45;;;;;;;14.90;13.45;;;8.40;99.90;;;;;;5093094;28;20551;-79
2022/09/30 04:02:14;;;;;;;13.77;12.57;;;8.40;99.90;;;;;;5107524;27;20043;-80
2022/09/30 04:04:40;;;;;;;14.15;12.90;;;8.40;99.90;;;;;;5103510;27;20044;-80
2022/09/30 04:07:07;;;;;;;16.93;15.43;;;8.30;99.90;;;;;;5089066;28;20135;-80
2022/09/30 04:09:33;;;;;;;15.30;13.93;;;8.30;99.90;;;;;;5091563;28;20075;-80
2022/09/30 04:11:59;;;;;;;16.33;14.80;;;8.30;99.90;;;;;;5096978;28;20518;-80
2022/09/30 04:14:25;;;;;;;16.48;14.85;;;8.30;99.90;;;;;;5090616;28;20035;-80
2022/09/30 04:16:51;;;;;;;18.10;16.48;;;8.30;99.90;;;;;;5097574;28;20385;-80
2022/09/30 04:19:16;;;;;;;18.08;16.50;;;8.30;99.90;;;;;;5096481;28;20174;-80
2022/09/30 04:21:42;;;;;;;17.48;15.88;;;8.30;99.90;;;;;;5091861;28;20392;-80
2022/09/30 04:24:07;;;;;;;21.20;19.30;;;8.40;99.90;;;;;;5096011;28;20135;-80
2022/09/30 04:26:33;;;;;;;20.23;18.23;;;8.40;99.90;;;;;;5087176;28;20130;-80
2022/09/30 04:28:59;;;;;;;19.77;17.98;;;8.40;99.90;;;;;;5101170;28;20047;-81
2022/09/30 04:31:24;;;;;;;20.98;18.38;;;8.40;99.90;;;;;;5097900;28;20051;-81
2022/09/30 04:33:50;;;;;;;21.52;19.60;;;8.40;99.90;;;;;;5099216;28;20578;-81
2022/09/30 04:36:17;;;;;;;18.73;17.02;;;8.40;99.90;;;;;;5101250;28;20044;-80
2022/09/30 04:38:42;;;;;;;18.60;16.77;;;8.50;99.90;;;;;;5098142;28;20479;-80
2022/09/30 04:41:14;;;;;;;18.95;17.25;;;8.50;99.90;;;;;;5101601;28;20048;-79
2022/09/30 04:43:45;;;;;;;19.30;17.48;;;8.40;99.90;;;;;;5101489;28;20047;-79
2022/09/30 04:46:15;;;;;;;19.42;17.63;;;8.40;99.90;;;;;;5099897;28;20415;-80
2022/09/30 04:48:44;;;;;;;19.13;17.33;;;8.40;99.90;;;;;;5094508;28;20134;-80
2022/09/30 04:51:10;;;;;;;19.83;17.92;;;8.40;99.90;;;;;;5097600;28;20040;-80
2022/09/30 04:53:36;;;;;;;19.52;17.63;;;8.30;99.90;;;;;;5095948;27;20040;-80
2022/09/30 04:56:02;;;;;;;19.90;18.20;;;8.30;99.90;;;;;;5101379;28;20070;-80
2022/09/30 04:58:28;;;;;;;17.65;16.05;;;8.30;99.90;;;;;;5107093;27;20541;-80
2022/09/30 05:01:08;;;;;;;16.95;15.25;;;8.30;99.90;;;;;;5092464;28;20035;-80
2022/09/30 05:03:34;;;;;;;22.27;17.40;;;8.30;99.90;;;;;;5092487;27;20052;-81
2022/09/30 05:06:01;;;;;;;18.05;15.43;;;8.20;99.90;;;;;;5099313;28;20097;-80
2022/09/30 05:08:26;;;;;;;19.00;15.48;;;8.20;99.90;;;;;;5104308;28;20148;-80
2022/09/30 05:10:56;;;;;;;13.23;12.13;;;8.10;99.90;;;;;;5096168;27;20367;-81
2022/09/30 05:13:33;;;;;;;12.25;11.23;;;8.00;99.90;;;;;;5103865;28;20057;-81
2022/09/30 05:15:59;;;;;;;11.80;10.80;;;8.00;99.90;;;;;;5098409;27;20126;-81
2022/09/30 05:18:27;;;;;;;13.65;12.35;;;7.90;99.90;;;;;;5093766;27;20046;-80
2022/09/30 05:20:56;;;;;;;12.70;11.60;;;7.90;99.90;;;;;;5097405;28;20040;-80
2022/09/30 05:23:23;;;;;;;13.68;12.18;;;7.80;99.90;;;;;;5097130;27;20062;-81
2022/09/30 05:25:49;;;;;;;12.65;11.55;;;7.80;99.90;;;;;;5099193;28;20071;-81
2022/09/30 05:28:15;;;;;;;13.52;12.18;;;7.80;99.90;;;;;;5097987;28;20044;-81
2022/09/30 05:30:42;;;;;;;11.77;10.57;;;7.70;99.90;;;;;;5088403;27;20044;-81
2022/09/30 05:33:08;;;;;;;11.98;10.98;;;7.70;99.90;;;;;;5103625;27;20135;-81
2022/09/30 05:35:34;;;;;;;13.80;12.50;;;7.60;99.90;;;;;;5100937;27;20526;-80
2022/09/30 05:38:02;;;;;;;13.15;11.95;;;7.60;99.90;;;;;;5109858;27;20058;-80
2022/09/30 05:40:27;;;;;;;15.48;13.95;;;7.60;99.90;;;;;;5096327;28;22359;-79
2022/09/30 05:42:56;;;;;;;14.98;13.65;;;7.70;99.90;;;;;;5101616;27;20073;-81
2022/09/30 05:45:22;;;;;;;15.93;14.48;;;7.70;99.90;;;;;;5097733;28;20039;-79
2022/09/30 05:47:54;;;;;;;17.38;15.68;;;7.70;99.90;;;;;;5095166;28;20052;-79
2022/09/30 05:50:22;;;;;;;15.00;13.55;;;7.70;99.90;;;;;;5099314;28;20040;-79
2022/09/30 05:52:48;;;;;;;17.65;15.95;;;7.70;99.90;;;;;;5095828;28;20040;-79
2022/09/30 05:55:15;;;;;;;17.15;15.55;;;7.70;99.90;;;;;;5091197;28;20101;-78
2022/09/30 05:57:42;;;;;;;19.25;17.45;;;7.80;99.90;;;;;;5090268;27;20052;-84
2022/09/30 06:00:08;;;;;;;15.82;14.25;;;7.90;99.90;;;;;;5089770;28;20050;-79
2022/09/30 06:02:37;;;;;;;19.35;17.33;;;7.80;99.90;;;;;;5099967;27;20046;-79
2022/09/30 06:05:05;;;;;;;18.80;17.10;;;7.90;99.90;;;;;;5103424;28;20386;-80
2022/09/30 06:07:33;;;;;;;18.85;17.08;;;7.90;99.90;;;;;;5102880;28;20034;-80
2022/09/30 06:09:59;;;;;;;;;;;7.90;99.90;;;;;;5093155;28;20383;-77
2022/09/30 06:12:27;;;;;;;19.15;17.15;;;7.90;99.90;;;;;;5105514;27;19928;-79
2022/09/30 06:14:52;;;;;;;18.20;16.40;;;7.90;99.90;;;;;;5092392;28;20117;-78
2022/09/30 06:17:18;;;;;;;18.40;16.58;;;8.00;99.90;;;;;;5096395;28;20489;-79
2022/09/30 06:19:44;;;;;;;18.15;16.45;;;8.00;99.90;;;;;;5100783;27;20120;-78
2022/09/30 06:22:09;;;;;;;20.63;18.58;;;8.10;99.90;;;;;;5097951;28;20437;-79
2022/09/30 06:24:36;;;;;;;19.88;18.08;;;8.20;99.90;;;;;;5101208;27;20093;-80
2022/09/30 06:27:05;;;;;;;19.13;17.48;;;8.20;99.90;;;;;;5096191;28;20109;-79
2022/09/30 06:29:33;;;;;;;19.42;17.63;;;8.30;99.90;;;;;;5095075;27;20104;-78
2022/09/30 06:32:02;;;;;;;18.60;16.92;;;8.40;99.90;;;;;;5097596;28;20035;-79
2022/09/30 06:34:28;;;;;;;21.45;19.25;;;8.40;99.90;;;;;;5101129;28;20067;-79
2022/09/30 06:36:56;;;;;;;21.88;19.77;;;8.50;99.90;;;;;;5097918;28;20677;-79
2022/09/30 06:39:23;;;;;;;22.58;20.38;;;8.50;99.90;;;;;;5108892;27;20040;-79
2022/09/30 06:41:48;;;;;;;21.27;19.27;;;8.60;99.90;;;;;;5097139;28;20105;-79
2022/09/30 06:44:17;;;;;;;23.98;20.73;;;8.60;99.90;;;;;;5095503;28;20869;-79
2022/09/30 06:46:42;;;;;;;22.95;20.58;;;8.70;99.90;;;;;;5095734;27;20031;-79
2022/09/30 06:49:08;;;;;;;22.10;20.10;;;8.80;99.90;;;;;;5098642;28;20054;-78
2022/09/30 06:51:35;;;;;;;21.80;19.27;;;8.80;99.90;;;;;;5090146;28;20046;-79
2022/09/30 06:54:01;;;;;;;21.70;19.60;;;8.80;99.90;;;;;;5100345;27;20119;-79
2022/09/30 06:56:26;;;;;;;21.23;19.42;;;8.90;99.90;;;;;;5098948;28;20127;-77
2022/09/30 06:58:52;;;;;;;26.67;24.38;;;8.90;99.90;;;;;;5094034;27;20042;-78
2022/09/30 07:01:19;;;;;;;25.23;23.02;;;9.00;99.90;;;;;;5091580;28;20055;-79
2022/09/30 07:03:46;;;;;;;30.25;27.58;;;9.00;99.90;;;;;;5096132;28;20052;-79
2022/09/30 07:06:13;;;;;;;27.67;25.38;;;9.00;99.90;;;;;;5112922;27;20151;-79
2022/09/30 07:08:39;;;;;;;;;;;9.10;99.90;;;;;;5090742;28;20090;-80
2022/09/30 07:11:15;;;;;;;25.33;22.92;;;9.10;99.90;;;;;;5090460;28;19923;-78
2022/09/30 07:13:46;;;;;;;24.90;22.75;;;9.10;99.90;;;;;;5092928;28;20047;-76
2022/09/30 07:16:13;;;;;;;26.70;24.20;;;9.20;99.90;;;;;;5096366;28;20163;-76
2022/09/30 07:18:43;;;;;;;26.10;23.77;;;9.20;99.90;;;;;;5090698;27;20055;-79
2022/09/30 07:21:14;;;;;;;25.77;23.45;;;9.30;99.90;;;;;;5103182;28;20032;-79
2022/09/30 07:23:47;;;;;;;26.88;24.48;;;9.40;99.90;;;;;;5103308;28;20039;-77
2022/09/30 07:26:18;;;;;;;26.52;24.25;;;9.40;99.90;;;;;;5093290;28;20170;-76
2022/09/30 07:28:45;;;;;;;27.70;25.05;;;9.50;99.90;;;;;;5106274;28;20035;-75
2022/09/30 07:31:17;;;;;;;28.10;25.63;;;9.50;99.90;;;;;;5099993;28;20040;-77
2022/09/30 07:33:44;;;;;;;24.20;22.10;;;9.50;99.90;;;;;;5094799;28;20028;-78
2022/09/30 07:36:11;;;;;;;28.92;26.40;;;9.50;99.90;;;;;;5108402;28;20055;-79
2022/09/30 07:38:39;;;;;;;25.88;23.65;;;9.60;99.90;;;;;;5101092;28;20382;-77
2022/09/30 07:41:11;;;;;;;24.27;21.98;;;9.70;99.90;;;;;;5092948;28;20056;-77
2022/09/30 07:43:38;;;;;;;20.90;18.95;;;9.70;99.90;;;;;;5098567;22;20042;-79
2022/09/30 07:46:16;;;;;;;19.02;17.33;;;9.80;99.90;;;;;;5020130;28;20129;-78
2022/09/30 07:48:49;;;;;;;18.80;17.10;;;9.80;99.90;;;;;;5024073;28;20485;-76
2022/09/30 07:51:28;;;;;;;19.27;16.98;;;9.90;99.90;;;;;;5023228;28;20038;-81
2022/09/30 07:54:04;;;;;;;18.10;16.27;;;10.00;99.90;;;;;;5008040;28;20056;-79
2022/09/30 07:56:31;;;;;;;18.45;16.55;;;10.10;99.90;;;;;;5018970;28;20141;-77
2022/09/30 07:58:59;;;;;;;18.55;16.58;;;10.10;99.90;;;;;;5006660;28;20045;-84
2022/09/30 08:01:26;;;;;;;19.30;17.40;;;10.20;99.90;;;;;;5010535;28;20144;-84
2022/09/30 08:03:56;;;;;;;;;;;10.30;99.90;;;;;;5026056;28;20407;-86
2022/09/30 08:06:22;;;;;;;19.60;17.50;;;10.30;99.90;;;;;;5006171;28;19921;-77
2022/09/30 08:08:51;;;;;;;18.98;17.23;;;10.40;99.90;;;;;;5007830;28;20045;-75
2022/09/30 08:11:17;;;;;;;19.40;17.60;;;10.40;99.90;;;;;;5003919;28;20559;-76
2022/09/30 08:13:42;;;;;;;19.92;17.98;;;10.60;99.90;;;;;;5019466;28;20117;-78
2022/09/30 08:16:08;;;;;;;19.77;17.98;;;10.60;99.90;;;;;;5024737;28;20533;-78
2022/09/30 08:18:37;;;;;;;18.90;17.20;;;10.60;99.90;;;;;;5026932;28;20038;-75
2022/09/30 08:21:05;;;;;;;18.08;16.40;;;10.80;99.90;;;;;;5026330;28;20068;-77
2022/09/30 08:23:32;;;;;;;19.02;17.13;;;10.80;99.90;;;;;;5006262;28;20081;-81
2022/09/30 08:26:05;;;;;;;16.55;14.95;;;10.80;99.90;;;;;;5024416;28;20061;-83
2022/09/30 08:28:31;;;;;;;15.70;14.05;;;10.90;99.90;;;;;;5024138;28;20045;-84
2022/09/30 08:31:07;;;;;;;15.13;13.20;;;11.10;99.90;;;;;;5023225;28;20071;-83
2022/09/30 08:33:33;;;;;;;15.13;13.55;;;11.10;99.90;;;;;;5026014;28;20041;-84
2022/09/30 08:36:07;;;;;;;14.15;12.88;;;11.10;99.90;;;;;;5025412;28;20069;-84
2022/09/30 08:38:33;;;;;;;15.25;13.75;;;11.20;99.90;;;;;;5027665;28;20049;-84
2022/09/30 08:41:23;;;;;;;14.33;12.93;;;11.20;99.90;;;;;;5023649;28;20499;-81
2022/09/30 08:44:34;;;;;;;13.85;12.55;;;11.30;99.90;;;;;;5002196;28;20053;-80
2022/09/30 08:47:16;;;;;;;15.05;13.65;;;11.40;99.90;;;;;;4904036;29;20056;-80
2022/09/30 08:49:58;;;;;;;17.02;12.85;;;11.40;99.90;;;;;;4910788;29;20051;-82
2022/09/30 08:52:30;;;;;;;13.98;12.57;;;11.50;99.90;;;;;;4982008;28;20050;-81
2022/09/30 08:54:56;;;;;;;13.90;12.30;;;11.60;99.90;;;;;;5007347;28;20070;-80
2022/09/30 08:57:23;;;;;;;13.13;11.90;;;11.60;99.90;;;;;;4991184;28;20058;-79
2022/09/30 08:59:55;;;;;;;13.68;12.23;;;11.70;99.90;;;;;;5006440;28;20049;-79
2022/09/30 09:02:31;;;;;;;12.63;11.32;;;11.80;99.90;;;;;;5001336;28;20132;-77
2022/09/30 09:05:00;;;;;;;13.57;11.05;;;11.80;99.90;;;;;;5009284;28;20112;-80
2022/09/30 09:07:32;;;;;;;13.52;12.23;;;11.90;99.90;;;;;;5022802;28;20608;-78
2022/09/30 09:10:22;;;;;;;12.32;10.95;;;12.00;99.90;;;;;;5002695;28;20038;-75
2022/09/30 09:13:08;;;;;;;12.07;10.98;;;12.10;99.90;;;;;;5027549;28;20069;-81
2022/09/30 09:15:37;;;;;;;11.55;10.45;;;12.20;99.90;;;;;;5025163;28;20038;-79
2022/09/30 09:18:17;;;;;;;11.75;10.20;;;12.30;99.90;;;;;;5023628;28;20044;-79
2022/09/30 09:20:53;;;;;;;11.10;10.00;;;12.30;99.90;;;;;;5011920;28;20124;-79
2022/09/30 09:23:20;;;;;;;12.27;10.98;;;12.50;99.90;;;;;;5025428;28;20442;-77
2022/09/30 09:25:51;;;;;;;11.73;10.23;;;12.60;99.90;;;;;;5023948;28;20488;-77
2022/09/30 09:28:29;;;;;;;11.15;10.15;;;12.60;99.90;;;;;;5017967;28;20045;-78
2022/09/30 09:30:59;;;;;;;11.23;10.07;;;12.70;99.90;;;;;;5028655;28;20118;-78
2022/09/30 09:33:31;;;;;;;12.88;8.80;;;12.70;99.90;;;;;;5028119;28;20037;-78
2022/09/30 09:36:02;;;;;;;11.57;9.63;;;12.80;99.90;;;;;;5027589;28;20053;-75
2022/09/30 09:38:51;;;;;;;10.52;9.40;;;12.90;99.90;;;;;;5031365;28;20439;-74
2022/09/30 09:41:32;;;;;;;11.43;10.32;;;13.00;99.90;;;;;;5026857;28;20049;-73
2022/09/30 09:44:12;;;;;;;13.10;10.82;;;13.10;99.90;;;;;;5015383;28;20049;-73
2022/09/30 09:46:48;;;;;;;12.40;11.15;;;13.10;99.90;;;;;;5005197;28;20528;-75
2022/09/30 09:49:25;;;;;;;11.50;10.35;;;13.20;99.90;;;;;;5026889;28;20397;-75
2022/09/30 09:52:12;;;;;;;12.27;11.07;;;13.20;99.90;;;;;;5027672;28;20046;-75
2022/09/30 09:54:44;;;;;;;12.63;11.32;;;13.30;99.90;;;;;;5029485;28;20048;-75
2022/09/30 09:57:31;;;;;;;12.93;11.73;;;13.40;99.90;;;;;;5011687;28;20049;-75
2022/09/30 10:03:09;;;;;;;12.60;11.27;;;13.60;99.90;;;;;;5020459;28;20056;-73
2022/09/30 10:05:38;;;;;;;13.32;12.02;;;13.60;99.90;;;;;;5026409;28;20053;-73
2022/09/30 10:08:16;;;;;;;13.85;11.88;;;13.70;99.90;;;;;;5009536;28;20064;-72
2022/09/30 10:10:50;;;;;;;13.32;12.00;;;13.70;99.90;;;;;;5029533;28;20049;-72
2022/09/30 10:13:37;;;;;;;13.68;12.27;;;13.80;99.90;;;;;;5025157;28;20092;-73
2022/09/30 10:16:03;;;;;;;13.98;12.60;;;13.80;99.90;;;;;;5028785;28;20382;-71
2022/09/30 10:18:33;;;;;;;14.27;12.98;;;13.80;99.90;;;;;;5004212;28;20053;-73
2022/09/30 10:21:06;;;;;;;16.05;14.55;;;13.90;99.90;;;;;;5020800;28;20046;-75
2022/09/30 10:23:38;;;;;;;17.55;15.45;;;14.00;99.90;;;;;;5027000;28;20183;-81
2022/09/30 10:26:13;;;;;;;18.65;16.85;;;14.00;99.90;;;;;;5024314;28;20045;-74
2022/09/30 10:28:47;;;;;;;18.02;16.23;;;14.10;99.90;;;;;;5028279;28;20135;-74
2022/09/30 10:31:40;;;;;;;19.13;17.25;;;14.20;99.90;;;;;;5028594;28;20119;-74
2022/09/30 10:34:26;;;;;;;18.63;16.73;;;14.20;99.90;;;;;;5023985;28;20579;-75
2022/09/30 10:36:53;;;;;;;18.73;16.75;;;14.20;99.90;;;;;;5015430;28;20125;-77
2022/09/30 10:39:25;;;;;;;18.42;16.45;;;14.30;99.90;;;;;;5024476;28;20049;-74
2022/09/30 10:42:16;;;;;;;17.63;15.93;;;14.30;99.90;;;;;;5003926;28;20083;-72
2022/09/30 10:44:47;;;;;;;15.70;13.85;;;14.40;99.90;;;;;;5022658;28;20057;-77
2022/09/30 10:47:16;;;;;;;17.88;14.30;;;14.50;99.90;;;;;;5023242;28;20399;-71
2022/09/30 10:49:46;;;;;;;16.65;15.00;;;14.60;99.90;;;;;;5019005;28;20052;-73
2022/09/30 10:52:20;;;;;;;13.95;10.70;;;14.70;99.90;;;;;;5027406;28;20407;-73
2022/09/30 10:54:55;;;;;;;13.30;11.57;;;14.70;99.90;;;;;;5025945;28;20536;-74
2022/09/30 10:57:30;;;;;;;14.45;13.05;;;14.80;99.90;;;;;;5009932;28;20057;-74
2022/09/30 11:00:05;;;;;;;14.50;13.07;;;14.80;99.90;;;;;;5007438;28;20076;-77
2022/09/30 11:02:42;;;;;;;12.95;11.60;;;14.80;99.90;;;;;;5015364;28;20061;-72
2022/09/30 11:05:19;;;;;;;15.27;12.02;;;14.80;99.90;;;;;;5020336;28;20708;-74
2022/09/30 11:08:03;;;;;;;13.77;12.40;;;14.80;99.90;;;;;;5005109;28;20045;-73
2022/09/30 11:10:52;;;;;;;14.73;11.98;;;14.80;99.90;;;;;;5021611;28;20073;-74
2022/09/30 11:13:39;;;;;;;13.68;12.38;;;14.80;99.90;;;;;;5027674;28;20041;-74
2022/09/30 11:16:08;;;;;;;14.07;12.52;;;14.90;99.90;;;;;;5023126;28;20045;-74
2022/09/30 11:18:46;;;;;;;16.88;14.20;;;15.00;99.90;;;;;;5027218;28;20061;-72
2022/09/30 11:21:17;;;;;;;17.10;14.60;;;15.00;99.90;;;;;;5003801;28;20080;-73
2022/09/30 11:23:49;;;;;;;17.17;15.32;;;15.10;99.90;;;;;;5005482;28;20108;-72
2022/09/30 11:26:46;;;;;;;16.10;14.50;;;15.10;99.90;;;;;;5021548;28;20049;-76
2022/09/30 11:29:48;;;;;;;16.85;15.23;;;15.10;99.90;;;;;;5001901;28;20125;-72
2022/09/30 11:32:31;;;;;;;17.27;15.55;;;15.10;99.90;;;;;;5024897;28;20057;-71
2022/09/30 11:35:12;;;;;;;16.75;15.05;;;15.20;99.90;;;;;;5021681;28;20042;-72
2022/09/30 11:38:16;;;;;;;18.85;16.83;;;15.20;99.90;;;;;;5004585;28;20045;-74
2022/09/30 11:40:41;;;;;;;20.05;17.70;;;15.30;99.90;;;;;;5001154;28;20038;-73
2022/09/30 11:43:16;;;;;;;18.95;17.05;;;15.40;99.90;;;;;;5006963;28;20140;-76
2022/09/30 11:45:53;;;;;;;17.67;15.93;;;15.40;99.90;;;;;;5006430;28;20460;-74
2022/09/30 11:48:35;;;;;;;19.50;17.52;;;15.50;99.90;;;;;;5016894;28;20052;-75
2022/09/30 11:51:25;;;;;;;19.35;17.48;;;15.50;99.90;;;;;;5005773;28;20057;-75
2022/09/30 11:54:18;;;;;;;18.55;16.85;;;15.60;99.90;;;;;;5022814;28;20034;-74
2022/09/30 11:57:10;;;;;;;16.30;14.68;;;15.70;99.90;;;;;;5027393;28;20053;-78
2022/09/30 11:59:47;;;;;;;17.38;15.68;;;15.70;99.90;;;;;;5008502;28;20037;-76
2022/09/30 12:02:30;;;;;;;18.33;15.15;;;15.80;99.90;;;;;;5014579;28;20481;-83
2022/09/30 12:05:04;;;;;;;17.02;15.27;;;15.80;99.90;;;;;;5018892;28;20049;-80
2022/09/30 12:07:55;;;;;;;18.08;16.38;;;15.80;99.90;;;;;;5023086;28;20054;-75
2022/09/30 12:10:30;;;;;;;18.15;16.33;;;15.80;99.90;;;;;;5003729;28;20049;-78
2022/09/30 12:13:01;;;;;;;18.50;16.60;;;15.90;99.90;;;;;;5018693;28;20045;-77
2022/09/30 12:15:28;;;;;;;17.80;16.08;;;16.00;99.90;;;;;;5020602;28;20499;-76
2022/09/30 12:18:04;;;;;;;18.50;16.58;;;16.00;99.90;;;;;;5023432;28;20038;-81
2022/09/30 12:20:38;;;;;;;19.27;14.88;;;16.00;99.90;;;;;;5023110;28;20069;-84
2022/09/30 12:23:19;;;;;;;15.68;13.38;;;16.00;99.90;;;;;;5022477;28;20064;-85
2022/09/30 12:25:51;;;;;;;15.73;14.13;;;16.00;99.90;;;;;;5022565;28;20393;-80
2022/09/30 12:31:30;;;;;;;14.95;13.32;;;16.30;99.90;;;;;;5015844;28;20057;-75
2022/09/30 12:34:07;;;;;;;14.95;13.55;;;16.30;99.90;;;;;;5025556;28;20049;-76
2022/09/30 12:36:42;;;;;;;15.95;14.35;;;16.30;99.90;;;;;;4994730;28;20037;-78
2022/09/30 12:39:25;;;;;;;13.98;12.57;;;16.20;99.90;;;;;;5003814;28;20041;-76
2022/09/30 12:42:06;;;;;;;14.80;13.30;;;16.20;99.90;;;;;;5023073;28;20469;-77
2022/09/30 12:45:36;;;;;;;15.27;13.68;;;16.20;99.90;;;;;;5007867;28;20118;-74
2022/09/30 12:48:07;;;;;;;16.23;14.70;;;16.30;99.90;;;;;;4998417;28;20791;-74
2022/09/30 12:50:48;;;;;;;18.17;15.23;;;16.30;99.90;;;;;;5021689;28;20052;-78
2022/09/30 12:53:22;;;;;;;16.17;14.60;;;16.40;99.90;;;;;;5023395;28;20704;-78
2022/09/30 12:55:49;;;;;;;18.17;15.35;;;16.40;99.90;;;;;;5025397;28;20056;-76
2022/09/30 12:58:29;;;;;;;16.33;14.52;;;16.40;99.90;;;;;;5026426;28;20046;-76
2022/09/30 13:01:15;;;;;;;15.40;13.90;;;16.50;99.90;;;;;;5024664;28;20096;-77
2022/09/30 13:03:48;;;;;;;17.38;15.68;;;16.50;99.90;;;;;;5011960;28;20503;-77
2022/09/30 13:06:15;;;;;;;17.55;15.80;;;16.60;99.90;;;;;;5028599;28;20041;-78
2022/09/30 13:09:04;;;;;;;17.08;15.32;;;16.60;99.90;;;;;;5027080;28;20033;-80
2022/09/30 13:11:47;;;;;;;16.60;14.90;;;16.70;99.90;;;;;;5021169;28;20622;-74
2022/09/30 13:14:26;;;;;;;16.52;14.93;;;16.70;99.90;;;;;;5025684;28;20038;-75
2022/09/30 13:17:06;;;;;;;18.05;16.35;;;16.70;99.90;;;;;;5025079;28;20106;-76